Página principal
METAR-TAF:

METAR-TAF

Aeroportos :

Aeroporto Internacional de Mehrabad

Teerã, Irão

latitude: 35-41N, longitude: 051-21E, altura: 1204 m

Observação actual do tempo

O boletim foi feito há 18 minutos, às 11:00 UTC
Vento 8 kt de sudeste
Temperatura 37°C
Humidade 11%
Pressão 1006 hPa
Visibilidade 10 km ou mais
sem nuvens abaixo de 1500 metros e sem cumulonimbus

METAR: OIII 191100Z 13008KT CAVOK 37/02 Q1005 A2970 NOSIG

Hora: 15:48 (11:18 UTC)

Previsão

O boletim foi feito há 5 horas e 48 minutos, às 05:30 UTC
Previsão válida de 19 às 06 UTC a 20 às 12 UTC
Vento 8 kt de sudeste
Visibilidade: 7000 m
Temporariamente
de 19 às 16 UTC a 19 às 24 UTC
Vento 19 kt de noroeste

TAF: OIII 190530Z 1906/2012 14004MPS 7000 NSC TEMPO 1916/1924 32010MPS

Observações e previsões do tempo de mais de 4000 aeroportos (mensagens METAR e TAF).

As estações disponíveis são os pontos amarelos e vermelhos sobre o mapa.

Mova o rato sobre o mapa para ver o nome da estação.

Depois clique no ponto para visualizar as observações e previsões meteorológicas.

Para alterar o mapa : clique nos botões verdes com uma cruz preta para aumentar o zoom; no botão verde com uma pitada de zoom; ou nas setas verdes para mapas adjacentes.


METAR-TAF: